createdAt,value
2023-01-30T00:01:04.603Z,77.67
2023-01-30T00:03:31.305Z,77.53
2023-01-30T00:05:58.072Z,79.14
2023-01-30T00:08:24.675Z,79.63
2023-01-30T00:10:51.306Z,79.82
2023-01-30T00:13:17.964Z,80.80
2023-01-30T00:15:44.686Z,80.93
2023-01-30T00:18:11.307Z,81.15
2023-01-30T00:20:38.011Z,81.33
2023-01-30T00:23:05.801Z,81.63
2023-01-30T00:25:32.752Z,82.40
2023-01-30T00:28:01.308Z,82.46
2023-01-30T00:30:28.434Z,82.52
2023-01-30T00:32:59.141Z,82.91
2023-01-30T00:35:28.793Z,82.89
2023-01-30T00:37:57.622Z,83.01
2023-01-30T00:40:25.843Z,83.15
2023-01-30T00:46:03.885Z,83.83
2023-01-30T00:48:31.278Z,82.76
2023-01-30T00:50:58.026Z,82.86
2023-01-30T00:53:24.881Z,83.02
2023-01-30T00:55:54.004Z,82.99
2023-01-30T00:58:21.801Z,82.23
2023-01-30T01:00:50.354Z,82.27
2023-01-30T01:03:17.261Z,82.45
2023-01-30T01:05:44.316Z,82.60
2023-01-30T01:08:11.365Z,83.21
2023-01-30T01:10:38.272Z,83.07
2023-01-30T01:13:07.018Z,83.53
2023-01-30T01:15:34.325Z,83.16
2023-01-30T01:18:00.896Z,83.46
2023-01-30T01:20:27.528Z,83.78
2023-01-30T01:22:56.296Z,83.92
2023-01-30T01:25:24.127Z,83.98
2023-01-30T01:27:50.883Z,84.21
2023-01-30T01:30:18.287Z,84.50
2023-01-30T01:32:45.088Z,84.67
2023-01-30T01:35:12.023Z,84.76
2023-01-30T01:37:38.709Z,84.79
2023-01-30T01:40:24.599Z,84.42
2023-01-30T01:42:51.489Z,84.41
2023-01-30T01:45:23.446Z,84.74
2023-01-30T01:47:57.532Z,84.98
2023-01-30T01:50:52.438Z,85.20
2023-01-30T01:53:23.521Z,85.53
2023-01-30T01:55:53.830Z,85.45
2023-01-30T01:58:26.544Z,85.05
2023-01-30T02:00:55.710Z,85.34
2023-01-30T02:03:25.521Z,84.95
2023-01-30T02:05:57.550Z,84.75
2023-01-30T02:08:33.541Z,85.23
2023-01-30T02:11:15.427Z,85.56
2023-01-30T02:13:42.102Z,85.51
2023-01-30T02:16:09.607Z,85.54
2023-01-30T02:18:39.389Z,85.34
2023-01-30T02:21:24.249Z,85.35
2023-01-30T02:24:16.186Z,85.35
2023-01-30T02:26:54.886Z,85.15
2023-01-30T02:29:42.838Z,84.97
2023-01-30T02:32:26.519Z,84.95
2023-01-30T02:35:07.039Z,85.03
2023-01-30T02:37:55.423Z,85.70
2023-01-30T02:40:39.501Z,85.97
2023-01-30T02:43:28.670Z,85.66
2023-01-30T02:46:20.031Z,86.50
2023-01-30T02:48:57.596Z,86.57
2023-01-30T02:51:29.936Z,86.76
2023-01-30T02:53:57.666Z,87.44
2023-01-30T02:56:24.345Z,87.76
2023-01-30T02:58:58.669Z,88.27
2023-01-30T03:01:49.571Z,88.06
2023-01-30T03:04:32.237Z,87.43
2023-01-30T03:07:20.246Z,87.80
2023-01-30T03:09:58.091Z,88.24
2023-01-30T03:12:48.859Z,88.02
2023-01-30T03:15:38.782Z,88.87
2023-01-30T03:18:07.001Z,88.68
2023-01-30T03:20:38.679Z,89.37
2023-01-30T03:23:05.915Z,90.11
2023-01-30T03:25:35.276Z,89.91
2023-01-30T03:28:04.023Z,90.11
2023-01-30T03:30:30.659Z,90.31
2023-01-30T03:32:57.249Z,90.30
2023-01-30T03:35:24.055Z,90.33
2023-01-30T03:37:51.000Z,90.47
2023-01-30T03:40:18.165Z,90.55
2023-01-30T03:42:44.733Z,90.64
2023-01-30T03:45:11.957Z,89.71
2023-01-30T03:47:38.536Z,89.94
2023-01-30T03:50:05.449Z,90.01
2023-01-30T03:52:35.370Z,89.55
2023-01-30T03:55:02.278Z,89.65
2023-01-30T03:57:28.881Z,90.29
2023-01-30T03:59:55.473Z,89.76
2023-01-30T04:02:23.563Z,89.90
2023-01-30T04:04:50.275Z,90.58
2023-01-30T04:07:17.625Z,91.05
2023-01-30T04:09:44.231Z,90.42
2023-01-30T04:12:10.822Z,90.92
2023-01-30T04:14:37.422Z,91.00
2023-01-30T04:17:03.985Z,90.05
2023-01-30T04:19:30.550Z,89.40
2023-01-30T04:21:57.077Z,90.40
2023-01-30T04:24:23.658Z,89.94
2023-01-30T04:26:50.201Z,90.23
2023-01-30T04:29:16.723Z,90.36
2023-01-30T04:31:43.391Z,90.13
2023-01-30T04:34:09.948Z,90.54
2023-01-30T04:36:37.146Z,90.65
2023-01-30T04:39:03.785Z,90.13
2023-01-30T04:41:30.450Z,90.58
2023-01-30T04:43:57.024Z,91.32
2023-01-30T04:46:23.608Z,91.05
2023-01-30T04:48:50.192Z,90.90
2023-01-30T04:51:16.833Z,91.24
2023-01-30T04:53:43.402Z,91.54
2023-01-30T04:56:09.996Z,91.09
2023-01-30T04:58:36.609Z,90.77
2023-01-30T05:01:29.622Z,91.91
2023-01-30T05:03:56.369Z,92.04
2023-01-30T05:06:23.199Z,92.48
2023-01-30T05:08:54.946Z,92.54
2023-01-30T05:11:22.702Z,92.93
2023-01-30T05:13:50.116Z,93.20
2023-01-30T05:16:18.029Z,92.54
2023-01-30T05:18:44.904Z,92.73
2023-01-30T05:21:17.523Z,92.64
2023-01-30T05:23:44.791Z,92.74
2023-01-30T05:26:13.000Z,92.40
2023-01-30T05:28:39.830Z,92.24
2023-01-30T05:31:14.115Z,92.53
2023-01-30T05:33:41.511Z,92.62
2023-01-30T05:36:13.865Z,92.62
2023-01-30T05:38:40.476Z,92.54
2023-01-30T05:41:08.470Z,92.84
2023-01-30T05:43:35.555Z,92.76
2023-01-30T05:46:03.798Z,93.14
2023-01-30T05:48:30.536Z,93.47
2023-01-30T05:50:59.199Z,92.88
2023-01-30T05:53:29.770Z,93.34
2023-01-30T05:56:02.031Z,93.28
2023-01-30T05:58:29.181Z,93.76
2023-01-30T06:01:00.584Z,94.09
2023-01-30T06:03:27.246Z,94.20
2023-01-30T06:05:53.876Z,94.65
2023-01-30T06:08:20.596Z,94.34
2023-01-30T06:10:47.159Z,94.16
2023-01-30T06:13:13.731Z,94.35
2023-01-30T06:15:40.325Z,95.28
2023-01-30T06:18:06.885Z,95.43
2023-01-30T06:20:33.444Z,96.23
2023-01-30T06:23:00.003Z,96.22
2023-01-30T06:25:27.400Z,96.79
2023-01-30T06:27:53.995Z,97.24
2023-01-30T06:30:20.575Z,97.38
2023-01-30T06:32:50.755Z,97.17
2023-01-30T06:35:17.638Z,97.36
2023-01-30T06:37:45.424Z,97.79
2023-01-30T06:40:12.990Z,97.57
2023-01-30T06:42:44.511Z,97.23
2023-01-30T06:45:11.537Z,97.20
2023-01-30T06:47:47.632Z,97.62
2023-01-30T06:50:15.634Z,97.43
2023-01-30T06:52:47.231Z,97.62
2023-01-30T06:55:16.530Z,97.81
2023-01-30T06:57:44.220Z,98.18
2023-01-30T07:00:16.577Z,98.13
2023-01-30T07:02:43.671Z,97.98
2023-01-30T07:05:10.753Z,97.85
2023-01-30T07:07:38.544Z,97.92
2023-01-30T07:10:09.057Z,98.14
2023-01-30T07:12:37.052Z,98.15
2023-01-30T07:15:04.944Z,97.62
2023-01-30T07:17:31.585Z,97.71
2023-01-30T07:19:58.219Z,98.04
2023-01-30T07:22:25.057Z,97.98
2023-01-30T07:24:51.788Z,98.13
2023-01-30T07:27:18.441Z,96.80
2023-01-30T07:29:45.015Z,96.58
2023-01-30T07:32:15.931Z,96.16
2023-01-30T07:34:42.547Z,95.61
2023-01-30T07:37:09.201Z,95.58
2023-01-30T07:39:36.158Z,94.83
2023-01-30T07:42:03.479Z,94.20
2023-01-30T07:44:30.628Z,94.50
2023-01-30T07:46:57.383Z,94.56
2023-01-30T07:49:24.053Z,93.95
2023-01-30T07:51:50.715Z,94.57
2023-01-30T07:54:17.465Z,94.28
2023-01-30T07:56:44.677Z,94.31
2023-01-30T07:59:12.179Z,94.07
2023-01-30T08:01:38.769Z,92.95
2023-01-30T08:04:05.635Z,91.93
2023-01-30T08:06:32.448Z,92.07
2023-01-30T08:08:58.999Z,91.78
2023-01-30T08:11:25.651Z,92.16
2023-01-30T08:13:52.238Z,91.29
2023-01-30T08:16:18.884Z,91.49
2023-01-30T08:18:45.464Z,90.90
2023-01-30T08:21:12.107Z,90.73
2023-01-30T08:23:38.699Z,90.21
2023-01-30T08:26:06.289Z,90.05
2023-01-30T08:28:33.248Z,89.95
2023-01-30T08:31:00.004Z,89.62
2023-01-30T08:33:26.703Z,89.05
2023-01-30T08:35:53.350Z,89.18
2023-01-30T08:38:19.978Z,89.46
2023-01-30T08:40:46.601Z,88.65
2023-01-30T08:43:14.143Z,88.14
2023-01-30T08:45:40.692Z,87.68
2023-01-30T08:48:07.814Z,87.61
2023-01-30T08:50:35.385Z,87.55
2023-01-30T08:53:10.032Z,88.05
2023-01-30T08:55:36.716Z,88.48
2023-01-30T08:58:03.234Z,87.70
2023-01-30T09:00:30.370Z,87.17
2023-01-30T09:02:58.088Z,86.04
2023-01-30T09:05:25.116Z,86.27
2023-01-30T09:07:51.838Z,84.37
2023-01-30T09:10:18.944Z,83.78
2023-01-30T09:12:46.584Z,83.23
2023-01-30T09:15:13.254Z,83.09
2023-01-30T09:17:40.144Z,82.98
2023-01-30T09:20:08.284Z,82.74
2023-01-30T09:22:34.983Z,82.85
2023-01-30T09:25:01.772Z,82.66
2023-01-30T09:27:28.383Z,82.14
2023-01-30T09:29:55.024Z,82.51
2023-01-30T09:32:21.695Z,83.42
2023-01-30T09:34:48.236Z,83.01
2023-01-30T09:37:14.901Z,82.91
2023-01-30T09:39:41.564Z,83.24
2023-01-30T09:42:45.186Z,82.75
2023-01-30T09:46:00.556Z,82.43
2023-01-30T09:48:34.567Z,82.44
2023-01-30T09:51:22.943Z,82.80
2023-01-30T09:54:24.286Z,81.83
2023-01-30T09:57:20.905Z,82.18
2023-01-30T09:59:57.342Z,82.71
2023-01-30T10:02:53.204Z,83.01
2023-01-30T10:05:19.942Z,83.68
2023-01-30T10:07:49.647Z,84.35
2023-01-30T10:10:31.158Z,84.42
2023-01-30T10:13:16.047Z,84.33
2023-01-30T10:15:55.539Z,85.35
2023-01-30T10:18:38.831Z,84.36
2023-01-30T10:21:24.947Z,84.79
2023-01-30T10:23:51.430Z,85.83
2023-01-30T10:26:21.749Z,82.19
2023-01-30T10:29:11.572Z,77.27
2023-01-30T10:32:01.776Z,74.11
2023-01-30T10:34:40.430Z,72.78
2023-01-30T10:37:19.867Z,73.31
2023-01-30T10:39:58.644Z,74.01
2023-01-30T10:42:39.056Z,74.62
2023-01-30T10:45:24.474Z,75.21
2023-01-30T10:48:05.833Z,75.28
2023-01-30T10:50:59.989Z,74.61
2023-01-30T10:53:50.240Z,76.08
2023-01-30T10:56:28.484Z,76.33
2023-01-30T10:59:20.723Z,76.34
2023-01-30T11:02:19.778Z,76.23
2023-01-30T11:05:03.653Z,76.57
2023-01-30T11:07:32.493Z,77.03
2023-01-30T11:10:00.245Z,77.42
2023-01-30T11:12:27.523Z,78.38
2023-01-30T11:14:56.668Z,77.73
2023-01-30T11:17:41.976Z,78.21
2023-01-30T11:20:19.276Z,79.10
2023-01-30T11:22:52.137Z,80.04
2023-01-30T11:25:23.144Z,79.78
2023-01-30T11:28:00.918Z,79.59
2023-01-30T11:30:30.622Z,79.45
2023-01-30T11:33:12.910Z,80.74
2023-01-30T11:35:54.926Z,80.75
2023-01-30T11:38:25.282Z,80.72
2023-01-30T11:41:06.450Z,80.13
2023-01-30T11:43:35.169Z,81.12
2023-01-30T11:46:02.545Z,81.33
2023-01-30T11:48:34.060Z,81.86
2023-01-30T11:51:23.798Z,81.61
2023-01-30T11:53:56.127Z,81.28
2023-01-30T11:56:48.777Z,80.26
2023-01-30T11:59:40.253Z,79.42
2023-01-30T12:02:27.721Z,79.62
2023-01-30T12:05:05.361Z,79.68
2023-01-30T12:07:34.528Z,79.57
2023-01-30T12:10:01.307Z,79.87
2023-01-30T12:12:43.919Z,80.09
2023-01-30T12:15:24.807Z,80.32
2023-01-30T12:18:14.222Z,80.66
2023-01-30T12:21:02.628Z,80.73
2023-01-30T12:24:13.980Z,80.96
2023-01-30T12:26:59.276Z,80.62
2023-01-30T12:29:37.527Z,80.28
2023-01-30T12:32:20.100Z,80.16
2023-01-30T12:34:48.296Z,80.33
2023-01-30T12:37:35.230Z,79.85
2023-01-30T12:40:13.603Z,80.09
2023-01-30T12:43:02.036Z,79.88
2023-01-30T12:45:32.860Z,80.21
2023-01-30T12:48:23.852Z,79.19
2023-01-30T12:51:05.217Z,78.94
2023-01-30T12:53:39.074Z,78.72
2023-01-30T12:56:26.822Z,78.86
2023-01-30T12:59:28.456Z,78.82
2023-01-30T13:01:55.012Z,79.11
2023-01-30T13:04:56.460Z,78.30
2023-01-30T13:08:08.903Z,77.95
2023-01-30T13:10:52.030Z,78.23
2023-01-30T13:13:59.163Z,77.17
2023-01-30T13:16:45.716Z,77.65
2023-01-30T13:19:40.400Z,77.15
2023-01-30T13:22:18.167Z,76.70
2023-01-30T13:24:51.058Z,75.95
2023-01-30T13:27:20.689Z,74.78
2023-01-30T13:29:49.710Z,75.48
2023-01-30T13:32:24.934Z,75.67
2023-01-30T13:34:53.695Z,75.11
2023-01-30T13:37:20.556Z,75.05
2023-01-30T13:39:50.099Z,74.65
2023-01-30T13:42:44.504Z,73.92
2023-01-30T13:45:18.218Z,74.35
2023-01-30T13:48:03.725Z,74.17
2023-01-30T13:51:11.939Z,73.99
2023-01-30T13:53:51.762Z,73.72
2023-01-30T13:56:41.504Z,73.26
2023-01-30T13:59:41.468Z,73.11
2023-01-30T14:02:16.756Z,73.61
2023-01-30T14:04:46.375Z,74.22
2023-01-30T14:07:12.915Z,73.46
2023-01-30T14:09:49.767Z,73.38
2023-01-30T14:12:22.618Z,74.01
2023-01-30T14:15:16.150Z,73.88
2023-01-30T14:18:07.397Z,74.07
2023-01-30T14:20:47.674Z,73.77
2023-01-30T14:24:03.149Z,73.79
2023-01-30T14:26:48.032Z,74.43
2023-01-30T14:29:39.356Z,74.56
2023-01-30T14:32:15.541Z,74.35
2023-01-30T14:35:04.241Z,74.42
2023-01-30T14:37:38.016Z,75.47
2023-01-30T14:40:24.592Z,75.53
2023-01-30T14:43:13.066Z,75.18
2023-01-30T14:45:48.863Z,75.90
2023-01-30T14:48:54.454Z,75.96
2023-01-30T14:51:33.980Z,76.23
2023-01-30T14:54:13.290Z,77.31
2023-01-30T14:56:54.307Z,77.49
2023-01-30T14:59:26.481Z,77.39
2023-01-30T15:02:01.661Z,77.84
2023-01-30T15:04:43.091Z,77.98
2023-01-30T15:07:18.887Z,78.29
2023-01-30T15:10:02.552Z,78.83
2023-01-30T15:12:35.166Z,78.89
2023-01-30T15:15:17.173Z,79.01
2023-01-30T15:18:13.985Z,79.14
2023-01-30T15:21:08.567Z,79.98
2023-01-30T15:23:56.393Z,79.73
2023-01-30T15:26:25.948Z,80.14
2023-01-30T15:29:28.866Z,80.52
2023-01-30T15:31:57.027Z,80.11
2023-01-30T15:34:27.278Z,80.41
2023-01-30T15:36:53.876Z,80.19
2023-01-30T15:39:23.884Z,80.79
2023-01-30T15:41:57.224Z,81.31
2023-01-30T15:44:45.573Z,81.19
2023-01-30T15:47:33.807Z,81.56
2023-01-30T15:50:04.873Z,82.44
2023-01-30T15:52:48.285Z,83.29
2023-01-30T15:55:30.771Z,83.66
2023-01-30T15:58:01.482Z,84.57
2023-01-30T16:00:31.750Z,85.65
2023-01-30T16:02:59.855Z,85.49
2023-01-30T16:05:26.940Z,86.04
2023-01-30T16:07:55.562Z,87.32
2023-01-30T16:10:27.201Z,86.69
2023-01-30T16:12:56.569Z,87.13
2023-01-30T16:15:26.044Z,87.70
2023-01-30T16:18:05.761Z,88.15
2023-01-30T16:23:37.404Z,88.34
2023-01-30T16:26:08.123Z,88.81
2023-01-30T16:28:35.179Z,89.51
2023-01-30T16:31:07.911Z,89.63
2023-01-30T16:33:37.584Z,90.15
2023-01-30T16:36:27.232Z,90.31
2023-01-30T16:38:54.964Z,90.95
2023-01-30T16:41:42.889Z,91.30
2023-01-30T16:44:22.883Z,91.86
2023-01-30T16:47:06.346Z,93.20
2023-01-30T16:49:36.767Z,93.46
2023-01-30T16:52:18.603Z,95.50
2023-01-30T16:55:06.628Z,96.05
2023-01-30T16:57:36.696Z,96.80
2023-01-30T17:00:10.228Z,97.29
2023-01-30T17:02:41.556Z,97.11
2023-01-30T17:05:21.594Z,97.79
2023-01-30T17:07:49.957Z,97.94
2023-01-30T17:10:28.655Z,97.94
2023-01-30T17:12:58.336Z,97.27
2023-01-30T17:15:38.011Z,98.00
2023-01-30T17:18:04.710Z,97.35
2023-01-30T17:20:38.643Z,98.42
2023-01-30T17:23:08.683Z,98.94
2023-01-30T17:25:44.336Z,98.77
2023-01-30T17:28:17.807Z,98.91
2023-01-30T17:30:44.504Z,98.99
2023-01-30T17:33:12.009Z,98.38
2023-01-30T17:35:38.904Z,98.75
2023-01-30T17:38:06.311Z,98.79
2023-01-30T17:40:36.096Z,98.59
2023-01-30T17:43:02.684Z,98.66
2023-01-30T17:45:29.367Z,98.02
2023-01-30T17:47:56.150Z,97.84
2023-01-30T17:50:23.042Z,98.04
2023-01-30T17:52:49.647Z,97.82
2023-01-30T17:55:16.432Z,97.70
2023-01-30T17:57:46.540Z,98.01
2023-01-30T18:00:18.892Z,98.05
2023-01-30T18:02:45.898Z,98.60
2023-01-30T18:05:12.864Z,98.58
2023-01-30T18:07:40.938Z,98.85
2023-01-30T18:10:18.924Z,99.33
2023-01-30T18:12:45.735Z,99.53
2023-01-30T18:15:15.119Z,100.00
2023-01-30T18:17:47.039Z,100.00
2023-01-30T18:20:17.581Z,100.00
2023-01-30T18:22:44.627Z,100.00
2023-01-30T18:25:14.851Z,100.00
2023-01-30T18:27:44.098Z,100.00
2023-01-30T18:30:17.450Z,100.00
2023-01-30T18:32:52.930Z,100.00
2023-01-30T18:35:21.627Z,100.00
2023-01-30T18:37:48.474Z,100.00
2023-01-30T18:40:15.270Z,100.00
2023-01-30T18:42:42.402Z,100.00
2023-01-30T18:45:09.602Z,100.00
2023-01-30T18:47:36.223Z,100.00
2023-01-30T18:50:03.020Z,99.66
2023-01-30T18:52:29.601Z,99.68
2023-01-30T18:54:56.222Z,99.64
2023-01-30T18:57:22.838Z,99.51
2023-01-30T18:59:49.427Z,99.59
2023-01-30T19:02:16.096Z,99.97
2023-01-30T19:04:42.816Z,99.91
2023-01-30T19:07:11.113Z,99.81
2023-01-30T19:09:37.868Z,99.03
2023-01-30T19:12:23.556Z,98.47
2023-01-30T19:14:50.122Z,97.18
2023-01-30T19:17:17.165Z,96.63
2023-01-30T19:19:44.009Z,95.07
2023-01-30T19:22:10.540Z,94.25
2023-01-30T19:24:37.242Z,93.49
2023-01-30T19:27:05.374Z,93.62
2023-01-30T19:29:31.939Z,93.35
2023-01-30T19:31:58.696Z,92.65
2023-01-30T19:34:25.619Z,92.37
2023-01-30T19:36:52.227Z,92.07
2023-01-30T19:39:18.909Z,90.97
2023-01-30T19:41:45.519Z,90.56
2023-01-30T19:44:12.484Z,90.42
2023-01-30T19:46:39.078Z,90.35
2023-01-30T19:49:05.878Z,90.48
2023-01-30T19:51:35.415Z,90.63
2023-01-30T19:54:07.678Z,90.48
2023-01-30T19:56:34.634Z,90.70
2023-01-30T19:59:02.319Z,90.09
2023-01-30T20:01:32.714Z,90.40
2023-01-30T20:04:00.819Z,90.00
2023-01-30T20:06:30.817Z,89.83
2023-01-30T20:09:00.182Z,89.05
2023-01-30T20:11:27.023Z,88.86
2023-01-30T20:13:54.196Z,87.98
2023-01-30T20:16:24.897Z,88.21
2023-01-30T20:18:59.669Z,87.35
2023-01-30T20:21:26.818Z,87.21
2023-01-30T20:23:53.668Z,87.50
2023-01-30T20:26:26.687Z,87.11
2023-01-30T20:28:56.886Z,87.00
2023-01-30T20:31:26.428Z,87.39
2023-01-30T20:33:55.792Z,87.47
2023-01-30T20:36:23.518Z,87.39
2023-01-30T20:38:51.082Z,87.75
2023-01-30T20:41:20.805Z,87.81
2023-01-30T20:43:51.122Z,88.64
2023-01-30T20:46:29.449Z,88.25
2023-01-30T20:48:58.265Z,88.92
2023-01-30T20:51:29.908Z,88.74
2023-01-30T20:54:05.412Z,88.52
2023-01-30T20:56:35.416Z,88.82
2023-01-30T20:59:04.661Z,88.74
2023-01-30T21:01:37.869Z,89.15
2023-01-30T21:04:07.877Z,88.75
2023-01-30T21:06:42.028Z,89.12
2023-01-30T21:09:13.141Z,88.90
2023-01-30T21:11:40.049Z,89.20
2023-01-30T21:14:06.659Z,89.19
2023-01-30T21:16:35.677Z,89.50
2023-01-30T21:19:06.056Z,89.92
2023-01-30T21:21:40.438Z,89.96
2023-01-30T21:24:12.961Z,88.65
2023-01-30T21:26:41.953Z,86.63
2023-01-30T21:29:08.980Z,86.52
2023-01-30T21:31:37.535Z,88.16
2023-01-30T21:34:04.673Z,89.09
2023-01-30T21:36:31.519Z,88.81
2023-01-30T21:39:16.637Z,89.78
2023-01-30T21:42:03.008Z,89.23
2023-01-30T21:44:39.244Z,89.62
2023-01-30T21:47:06.860Z,89.53
2023-01-30T21:49:34.264Z,90.37
2023-01-30T21:52:00.872Z,89.81
2023-01-30T21:54:27.845Z,89.66
2023-01-30T21:56:54.848Z,90.54
2023-01-30T21:59:21.446Z,91.17
2023-01-30T22:01:48.555Z,91.33
2023-01-30T22:04:16.307Z,91.73
2023-01-30T22:06:43.932Z,91.75
2023-01-30T22:09:15.431Z,91.76
2023-01-30T22:11:42.362Z,91.99
2023-01-30T22:14:09.228Z,92.04
2023-01-30T22:16:36.189Z,91.91
2023-01-30T22:19:04.616Z,92.06
2023-01-30T22:21:35.197Z,92.21
2023-01-30T22:24:02.875Z,92.14
2023-01-30T22:26:29.735Z,92.50
2023-01-30T22:29:01.311Z,92.36
2023-01-30T22:31:34.487Z,93.03
2023-01-30T22:34:03.368Z,93.02
2023-01-30T22:36:32.043Z,93.04
2023-01-30T22:38:58.602Z,92.83
2023-01-30T22:41:27.228Z,91.45
2023-01-30T22:43:55.867Z,90.64
2023-01-30T22:46:28.412Z,90.26
2023-01-30T22:48:55.139Z,88.94
2023-01-30T22:51:26.063Z,89.46
2023-01-30T22:53:58.376Z,88.79
2023-01-30T22:56:27.826Z,89.09
2023-01-30T22:58:54.836Z,89.00
2023-01-30T23:01:24.328Z,88.76
2023-01-30T23:03:59.977Z,88.69
2023-01-30T23:06:27.738Z,88.47
2023-01-30T23:08:55.086Z,87.79
2023-01-30T23:11:32.199Z,86.36
2023-01-30T23:14:06.957Z,85.31
2023-01-30T23:16:34.275Z,84.98
2023-01-30T23:19:03.591Z,83.97
2023-01-30T23:21:36.050Z,82.75
2023-01-30T23:24:11.810Z,82.19
2023-01-30T23:26:41.604Z,80.88
2023-01-30T23:29:13.137Z,80.96
2023-01-30T23:31:41.677Z,79.62
2023-01-30T23:34:12.024Z,79.05
2023-01-30T23:36:38.903Z,80.37
2023-01-30T23:39:05.633Z,81.42
2023-01-30T23:41:33.744Z,84.29
2023-01-30T23:44:00.690Z,85.56
2023-01-30T23:46:33.440Z,86.56
2023-01-30T23:49:19.251Z,86.71
2023-01-30T23:51:46.190Z,87.82
2023-01-30T23:54:13.783Z,88.16
2023-01-30T23:56:42.919Z,89.40
2023-01-30T23:59:10.284Z,89.60
